Time;durP1;ratioP1;P1;durP2;ratioP2;P2;SDS_P1;SDS_P2;PMS_P1;PMS_P2;Temp;Humidity;BMP_temperature;BMP_pressure;BME280_temperature;BME280_humidity;BME280_pressure;Samples;Min_cycle;Max_cycle;Signal;HPM_P1;HPM_P2
2023/07/16 05:24:51;;;;;;;4.53;2.75;;;;;;;;;;5110978;27;20332;-75
2023/07/16 05:27:16;;;;;;;6.00;3.53;;;;;;;;;;5110913;28;20044;-73
2023/07/16 05:29:42;;;;;;;7.05;3.00;;;;;;;;;;5110895;28;20111;-73
2023/07/16 05:32:07;;;;;;;7.70;2.80;;;;;;;;;;5109108;28;20031;-75
2023/07/16 05:34:33;;;;;;;6.95;3.00;;;;;;;;;;5110879;28;20030;-75
2023/07/16 05:36:58;;;;;;;5.75;3.08;;;;;;;;;;5109569;28;20070;-75
2023/07/16 05:39:24;;;;;;;4.72;2.53;;;;;;;;;;5109004;28;20098;-75
2023/07/16 05:41:49;;;;;;;7.18;2.97;;;;;;;;;;5110809;28;20028;-75
2023/07/16 05:44:14;;;;;;;7.95;3.35;;;;;;;;;;5110585;28;20019;-74
2023/07/16 05:46:40;;;;;;;7.28;3.75;;;;;;;;;;5110510;28;20035;-75
2023/07/16 05:49:05;;;;;;;9.07;3.78;;;;;;;;;;5110512;28;20019;-74
2023/07/16 05:51:30;;;;;;;12.77;4.22;;;;;;;;;;5108557;28;20032;-75
2023/07/16 05:53:56;;;;;;;12.07;4.45;;;;;;;;;;5109233;28;20028;-74
2023/07/16 05:56:21;;;;;;;12.25;4.22;;;;;;;;;;5110398;28;20024;-75
2023/07/16 05:58:46;;;;;;;7.97;4.03;;;;;;;;;;5108320;28;20032;-75
2023/07/16 06:01:11;;;;;;;8.00;3.95;;;;;;;;;;5110242;28;20020;-75
2023/07/16 06:03:37;;;;;;;8.70;3.92;;;;;;;;;;5108871;28;20111;-75
2023/07/16 06:06:02;;;;;;;9.63;3.75;;;;;;;;;;5106426;28;20035;-75
2023/07/16 06:08:28;;;;;;;8.23;3.65;;;;;;;;;;5089464;28;20111;-75
2023/07/16 06:10:53;;;;;;;9.55;3.88;;;;;;;;;;5088278;28;20039;-75
2023/07/16 06:13:18;;;;;;;11.13;4.07;;;;;;;;;;5089756;28;20016;-75
2023/07/16 06:15:44;;;;;;;9.38;3.70;;;;;;;;;;5088441;28;20485;-75
2023/07/16 06:18:09;;;;;;;8.07;3.55;;;;;;;;;;5072473;28;20109;-75
2023/07/16 06:20:34;;;;;;;6.20;3.00;;;;;;;;;;5090745;28;20016;-75
2023/07/16 06:23:00;;;;;;;7.43;3.78;;;;;;;;;;5109410;28;20039;-75
2023/07/16 06:25:25;;;;;;;8.63;3.83;;;;;;;;;;5108524;28;20092;-75
2023/07/16 06:27:50;;;;;;;8.38;3.75;;;;;;;;;;5109857;28;20069;-75
2023/07/16 06:30:16;;;;;;;7.43;3.80;;;;;;;;;;5109807;28;20024;-75
2023/07/16 06:32:41;;;;;;;7.70;3.28;;;;;;;;;;5108373;28;20492;-74
2023/07/16 06:35:08;;;;;;;7.65;3.08;;;;;;;;;;5102502;28;20098;-75
2023/07/16 06:37:33;;;;;;;5.43;3.17;;;;;;;;;;5094285;28;20045;-75
2023/07/16 06:39:58;;;;;;;12.60;4.00;;;;;;;;;;5094726;28;20031;-75
2023/07/16 06:42:23;;;;;;;8.75;3.60;;;;;;;;;;5094716;28;20051;-75
2023/07/16 06:44:49;;;;;;;9.35;3.33;;;;;;;;;;5095731;28;20028;-75
2023/07/16 06:47:15;;;;;;;27.42;5.03;;;;;;;;;;5094196;28;20023;-75
2023/07/16 06:49:40;;;;;;;7.88;3.63;;;;;;;;;;5094364;28;20028;-75
2023/07/16 06:52:06;;;;;;;9.07;3.45;;;;;;;;;;5094464;28;20032;-75
2023/07/16 06:54:31;;;;;;;6.68;3.03;;;;;;;;;;5095663;28;20048;-75
2023/07/16 06:56:56;;;;;;;10.80;3.50;;;;;;;;;;5095326;28;20052;-75
2023/07/16 06:59:22;;;;;;;12.02;4.35;;;;;;;;;;5095656;28;20026;-75
2023/07/16 07:01:47;;;;;;;10.80;4.38;;;;;;;;;;5095559;28;20412;-75
2023/07/16 07:04:12;;;;;;;15.68;5.88;;;;;;;;;;5095873;28;20470;-75
2023/07/16 07:06:37;;;;;;;11.07;4.68;;;;;;;;;;5076911;28;20388;-75
2023/07/16 07:09:03;;;;;;;12.82;4.85;;;;;;;;;;5094527;28;20077;-75
2023/07/16 07:11:28;;;;;;;8.88;4.00;;;;;;;;;;5094074;28;20016;-75
2023/07/16 07:13:53;;;;;;;10.45;4.10;;;;;;;;;;5094806;28;20070;-73
2023/07/16 07:16:19;;;;;;;10.90;4.32;;;;;;;;;;5095098;28;20081;-73
2023/07/16 07:18:44;;;;;;;11.10;3.95;;;;;;;;;;5095423;28;20051;-73
2023/07/16 07:21:10;;;;;;;8.55;3.85;;;;;;;;;;5095430;28;20031;-73
2023/07/16 07:23:35;;;;;;;7.78;4.00;;;;;;;;;;5095033;28;20043;-73
2023/07/16 07:26:00;;;;;;;13.88;4.18;;;;;;;;;;5094592;28;20035;-73
2023/07/16 07:28:27;;;;;;;9.40;3.88;;;;;;;;;;5095083;28;20027;-73
2023/07/16 07:30:52;;;;;;;8.15;3.70;;;;;;;;;;5076884;28;20024;-73
2023/07/16 07:33:17;;;;;;;8.48;3.88;;;;;;;;;;5094976;28;20027;-73
2023/07/16 07:35:42;;;;;;;7.30;3.55;;;;;;;;;;5094353;28;20452;-74
2023/07/16 07:38:08;;;;;;;12.18;3.75;;;;;;;;;;5094995;28;20084;-73
2023/07/16 07:40:33;;;;;;;9.35;3.80;;;;;;;;;;5093691;28;20073;-75
2023/07/16 07:42:58;;;;;;;10.63;4.20;;;;;;;;;;5094200;28;20099;-74
2023/07/16 07:45:24;;;;;;;8.10;3.75;;;;;;;;;;5094464;28;20012;-74
2023/07/16 07:47:49;;;;;;;10.75;4.32;;;;;;;;;;5093064;28;20032;-74
2023/07/16 07:50:15;;;;;;;9.95;3.92;;;;;;;;;;5093710;28;20028;-74
2023/07/16 07:52:40;;;;;;;13.10;4.63;;;;;;;;;;5094559;28;20023;-74
2023/07/16 07:55:06;;;;;;;8.80;4.18;;;;;;;;;;5094646;28;20039;-74
2023/07/16 07:57:31;;;;;;;8.60;4.68;;;;;;;;;;5094333;28;20035;-74
2023/07/16 07:59:57;;;;;;;7.60;3.65;;;;;;;;;;5094532;28;20028;-74
2023/07/16 08:02:23;;;;;;;11.48;4.10;;;;;;;;;;5093907;28;20166;-74
2023/07/16 08:04:51;;;;;;;10.20;3.88;;;;;;;;;;5093174;28;20031;-74
2023/07/16 08:07:16;;;;;;;7.30;3.67;;;;;;;;;;5093117;28;20059;-74
2023/07/16 08:09:41;;;;;;;12.48;3.63;;;;;;;;;;5094616;28;20450;-74
2023/07/16 08:12:07;;;;;;;7.15;3.60;;;;;;;;;;5094093;28;20027;-74
2023/07/16 08:14:32;;;;;;;6.28;3.88;;;;;;;;;;5094187;28;20481;-74
2023/07/16 08:16:58;;;;;;;8.77;3.30;;;;;;;;;;5093396;28;20065;-74
2023/07/16 08:19:23;;;;;;;10.07;4.28;;;;;;;;;;5094154;28;20049;-75
2023/07/16 08:21:48;;;;;;;9.00;3.72;;;;;;;;;;5094043;28;20496;-74
2023/07/16 08:24:14;;;;;;;10.20;4.05;;;;;;;;;;5093768;28;20039;-74
2023/07/16 08:26:39;;;;;;;9.05;3.58;;;;;;;;;;5073767;28;20070;-74
2023/07/16 08:29:04;;;;;;;6.93;3.42;;;;;;;;;;5073055;28;20477;-74
2023/07/16 08:31:30;;;;;;;7.75;3.50;;;;;;;;;;5086385;28;20020;-74
2023/07/16 08:33:56;;;;;;;7.03;3.67;;;;;;;;;;5093800;28;20484;-74
2023/07/16 08:36:21;;;;;;;10.35;3.88;;;;;;;;;;5076270;28;20025;-74
2023/07/16 08:38:47;;;;;;;14.95;3.90;;;;;;;;;;5073558;28;20021;-74
2023/07/16 08:41:12;;;;;;;7.32;4.07;;;;;;;;;;5072991;28;20141;-75
2023/07/16 08:43:38;;;;;;;9.20;3.40;;;;;;;;;;5073429;28;20020;-74
2023/07/16 08:46:03;;;;;;;6.50;3.53;;;;;;;;;;5073475;28;20154;-74
2023/07/16 08:48:29;;;;;;;8.90;3.35;;;;;;;;;;5071735;28;20099;-74
2023/07/16 08:50:55;;;;;;;6.43;3.38;;;;;;;;;;5068751;28;20021;-75
2023/07/16 08:53:20;;;;;;;7.68;3.65;;;;;;;;;;5052050;28;20584;-74
2023/07/16 08:55:46;;;;;;;8.98;4.05;;;;;;;;;;5053278;28;20025;-75
2023/07/16 08:58:14;;;;;;;7.18;3.28;;;;;;;;;;5051821;28;20021;-75
2023/07/16 09:00:39;;;;;;;8.40;3.50;;;;;;;;;;5059554;28;20547;-74
2023/07/16 09:03:05;;;;;;;8.95;3.70;;;;;;;;;;5068055;28;20032;-74
2023/07/16 09:05:30;;;;;;;8.85;3.63;;;;;;;;;;5087075;28;20047;-75
2023/07/16 09:07:56;;;;;;;6.55;2.83;;;;;;;;;;5093119;28;20469;-73
2023/07/16 09:10:21;;;;;;;9.30;3.03;;;;;;;;;;5092416;28;20020;-74
2023/07/16 09:12:46;;;;;;;12.90;4.35;;;;;;;;;;5093308;28;20109;-74
2023/07/16 09:15:16;;;;;;;7.05;3.28;;;;;;;;;;5093163;28;20043;-74
2023/07/16 09:17:41;;;;;;;8.35;2.95;;;;;;;;;;5092294;28;20392;-74
2023/07/16 09:20:08;;;;;;;9.25;3.20;;;;;;;;;;5093219;28;20030;-75
2023/07/16 09:22:34;;;;;;;6.65;3.10;;;;;;;;;;5092957;28;20016;-75
2023/07/16 09:25:02;;;;;;;9.98;2.75;;;;;;;;;;5092934;28;20030;-74
2023/07/16 09:27:29;;;;;;;9.45;3.55;;;;;;;;;;5093760;28;20024;-74
2023/07/16 09:29:54;;;;;;;8.38;3.42;;;;;;;;;;5074958;28;20107;-74
2023/07/16 09:32:19;;;;;;;6.25;2.97;;;;;;;;;;5093273;28;20437;-75
2023/07/16 09:34:45;;;;;;;7.45;3.28;;;;;;;;;;5092377;28;20027;-74
2023/07/16 09:37:10;;;;;;;4.88;2.75;;;;;;;;;;5091818;28;20038;-73
2023/07/16 09:39:37;;;;;;;5.45;2.72;;;;;;;;;;5093380;28;20028;-76
2023/07/16 09:42:03;;;;;;;6.88;3.05;;;;;;;;;;5093180;28;20095;-74
2023/07/16 09:44:29;;;;;;;9.25;3.13;;;;;;;;;;5091667;28;20463;-75
2023/07/16 09:46:55;;;;;;;7.10;2.70;;;;;;;;;;5074376;28;20069;-74
2023/07/16 09:49:21;;;;;;;10.70;3.40;;;;;;;;;;5091763;28;20023;-75
2023/07/16 09:51:48;;;;;;;13.15;3.17;;;;;;;;;;5091704;28;20023;-73
2023/07/16 09:54:15;;;;;;;6.13;3.08;;;;;;;;;;5091763;28;20392;-75
2023/07/16 09:56:44;;;;;;;9.70;3.47;;;;;;;;;;5091017;28;20420;-74
2023/07/16 09:59:13;;;;;;;7.00;3.15;;;;;;;;;;5091754;28;20024;-75
2023/07/16 10:01:41;;;;;;;7.47;3.22;;;;;;;;;;5091237;28;20123;-74
2023/07/16 10:04:16;;;;;;;7.38;4.05;;;;;;;;;;5092935;28;20388;-74
2023/07/16 10:06:58;;;;;;;7.00;3.83;;;;;;;;;;5074232;28;20475;-74
2023/07/16 10:09:42;;;;;;;7.85;3.55;;;;;;;;;;5091623;28;20468;-75
2023/07/16 10:12:11;;;;;;;9.88;3.90;;;;;;;;;;5095298;28;20111;-73
2023/07/16 10:14:41;;;;;;;8.45;3.22;;;;;;;;;;5094479;28;20493;-75
2023/07/16 10:17:07;;;;;;;4.95;3.10;;;;;;;;;;5096193;28;20122;-75
2023/07/16 10:19:59;;;;;;;9.48;4.32;;;;;;;;;;5095202;28;20410;-75
2023/07/16 10:22:31;;;;;;;7.50;3.67;;;;;;;;;;5092977;28;20408;-75
2023/07/16 10:24:56;;;;;;;11.57;3.72;;;;;;;;;;5096079;28;20365;-75
2023/07/16 10:27:33;;;;;;;7.43;3.38;;;;;;;;;;5096156;28;20035;-75
2023/07/16 10:30:01;;;;;;;8.10;3.40;;;;;;;;;;5095640;28;20035;-74
2023/07/16 10:32:28;;;;;;;7.97;3.20;;;;;;;;;;5096048;28;20051;-74
2023/07/16 10:34:53;;;;;;;9.77;4.43;;;;;;;;;;5096088;28;20024;-74
2023/07/16 10:37:18;;;;;;;10.68;3.58;;;;;;;;;;5095687;28;20107;-74
2023/07/16 10:39:48;;;;;;;18.63;4.43;;;;;;;;;;5096183;28;20028;-73
2023/07/16 10:42:15;;;;;;;11.80;3.92;;;;;;;;;;5092504;28;20028;-74
2023/07/16 10:44:40;;;;;;;9.93;4.30;;;;;;;;;;5074793;28;20029;-74
2023/07/16 10:47:06;;;;;;;6.25;3.38;;;;;;;;;;5074140;28;20465;-74
2023/07/16 10:49:31;;;;;;;12.85;3.63;;;;;;;;;;5074459;28;20032;-74
2023/07/16 10:51:59;;;;;;;7.55;3.60;;;;;;;;;;5075222;28;20017;-74
2023/07/16 10:54:25;;;;;;;7.35;3.08;;;;;;;;;;5083858;28;20016;-74
2023/07/16 10:56:51;;;;;;;7.63;3.05;;;;;;;;;;5076972;28;20078;-71
2023/07/16 10:59:17;;;;;;;8.32;3.38;;;;;;;;;;5094056;28;20020;-74
2023/07/16 11:01:43;;;;;;;10.85;4.65;;;;;;;;;;5094349;28;20034;-73
2023/07/16 11:04:08;;;;;;;9.50;3.70;;;;;;;;;;5095301;28;20089;-73
2023/07/16 11:06:35;;;;;;;13.95;4.30;;;;;;;;;;5093922;28;20489;-73
2023/07/16 11:09:09;;;;;;;6.82;3.20;;;;;;;;;;5094856;28;20066;-73
2023/07/16 11:11:35;;;;;;;9.30;3.67;;;;;;;;;;5093944;28;20020;-73
2023/07/16 11:14:03;;;;;;;8.88;3.80;;;;;;;;;;5095195;28;20065;-70
2023/07/16 11:16:33;;;;;;;10.10;4.05;;;;;;;;;;5094658;28;20492;-73
2023/07/16 11:18:58;;;;;;;10.63;3.78;;;;;;;;;;5093483;28;20033;-74
2023/07/16 11:21:23;;;;;;;10.30;3.97;;;;;;;;;;5094664;28;20024;-75
2023/07/16 11:23:49;;;;;;;12.10;4.35;;;;;;;;;;5093881;28;20028;-75
2023/07/16 11:26:15;;;;;;;9.82;3.80;;;;;;;;;;5094190;28;20016;-75
2023/07/16 11:28:41;;;;;;;7.20;3.60;;;;;;;;;;5093645;28;20032;-75
2023/07/16 11:31:16;;;;;;;8.93;4.68;;;;;;;;;;5094895;28;20028;-75
2023/07/16 11:33:45;;;;;;;9.82;3.83;;;;;;;;;;5092951;28;20388;-76
2023/07/16 11:36:11;;;;;;;9.13;3.35;;;;;;;;;;5093602;28;20028;-75
2023/07/16 11:38:37;;;;;;;7.20;4.13;;;;;;;;;;5093362;28;20104;-75
2023/07/16 11:41:02;;;;;;;13.10;4.00;;;;;;;;;;5093189;28;20024;-75
2023/07/16 11:43:28;;;;;;;6.18;3.10;;;;;;;;;;5092370;28;20024;-74
2023/07/16 11:45:53;;;;;;;8.43;3.80;;;;;;;;;;5093508;28;20374;-76
2023/07/16 11:48:18;;;;;;;7.05;3.65;;;;;;;;;;5094162;28;20054;-72
2023/07/16 11:50:45;;;;;;;7.00;3.72;;;;;;;;;;5092922;28;20103;-73
2023/07/16 11:53:10;;;;;;;9.85;3.90;;;;;;;;;;5093213;28;20024;-73
2023/07/16 11:55:36;;;;;;;8.63;3.50;;;;;;;;;;5093567;28;20019;-73
2023/07/16 11:58:02;;;;;;;6.20;3.00;;;;;;;;;;5094528;28;20107;-73
2023/07/16 12:00:28;;;;;;;8.25;3.70;;;;;;;;;;5092858;28;20027;-73
2023/07/16 12:02:53;;;;;;;9.00;3.97;;;;;;;;;;5093945;28;20488;-73
2023/07/16 12:05:24;;;;;;;9.88;2.97;;;;;;;;;;5094310;28;20495;-73
2023/07/16 12:07:49;;;;;;;7.57;2.88;;;;;;;;;;5094186;28;20028;-75
2023/07/16 12:10:14;;;;;;;11.30;4.70;;;;;;;;;;5093780;28;20047;-75
2023/07/16 12:12:40;;;;;;;12.07;3.83;;;;;;;;;;5092274;28;20062;-75
2023/07/16 12:15:07;;;;;;;12.85;3.85;;;;;;;;;;5094860;28;20453;-75
2023/07/16 12:17:32;;;;;;;8.65;4.00;;;;;;;;;;5093297;28;20358;-76
2023/07/16 12:19:57;;;;;;;7.40;3.60;;;;;;;;;;5092739;28;20026;-75
2023/07/16 12:22:23;;;;;;;7.70;3.22;;;;;;;;;;5093817;28;20081;-76
2023/07/16 12:24:49;;;;;;;6.82;3.60;;;;;;;;;;5075360;28;20024;-76
2023/07/16 12:27:15;;;;;;;7.82;3.03;;;;;;;;;;5092487;28;20101;-76
2023/07/16 12:29:41;;;;;;;9.00;3.42;;;;;;;;;;5056543;28;20120;-76
2023/07/16 12:32:06;;;;;;;10.88;3.80;;;;;;;;;;5082843;28;20108;-75
2023/07/16 12:34:32;;;;;;;7.93;3.30;;;;;;;;;;5071958;28;20016;-76
2023/07/16 12:36:57;;;;;;;8.77;3.00;;;;;;;;;;5072081;28;20029;-76
2023/07/16 12:39:23;;;;;;;6.63;3.65;;;;;;;;;;5088702;28;20016;-76
2023/07/16 12:41:49;;;;;;;8.90;3.47;;;;;;;;;;5092299;28;20020;-76
2023/07/16 12:44:14;;;;;;;9.15;3.92;;;;;;;;;;5079649;28;20388;-76
2023/07/16 12:46:39;;;;;;;7.15;3.85;;;;;;;;;;5072755;28;20032;-75
2023/07/16 12:49:05;;;;;;;9.05;4.18;;;;;;;;;;5070221;28;20106;-75
2023/07/16 12:51:30;;;;;;;13.85;4.80;;;;;;;;;;5073222;28;20028;-76
2023/07/16 12:53:55;;;;;;;6.85;4.20;;;;;;;;;;5072856;28;20493;-76
2023/07/16 12:56:20;;;;;;;11.82;4.75;;;;;;;;;;5073604;28;20028;-75
2023/07/16 12:58:47;;;;;;;7.95;3.70;;;;;;;;;;5071225;28;20021;-76
2023/07/16 13:01:12;;;;;;;6.85;4.00;;;;;;;;;;5059080;28;20074;-76
2023/07/16 13:03:38;;;;;;;7.65;4.05;;;;;;;;;;5083639;28;20023;-76
2023/07/16 13:06:04;;;;;;;8.70;3.45;;;;;;;;;;5092642;28;20094;-75
2023/07/16 13:08:29;;;;;;;12.18;3.85;;;;;;;;;;5092934;28;20031;-74
2023/07/16 13:10:55;;;;;;;10.18;4.45;;;;;;;;;;5091984;28;20027;-73
2023/07/16 13:13:20;;;;;;;11.02;3.67;;;;;;;;;;5061706;28;20098;-73
2023/07/16 13:15:45;;;;;;;11.07;5.13;;;;;;;;;;5067277;28;20108;-72
2023/07/16 13:18:11;;;;;;;10.82;4.28;;;;;;;;;;5077378;28;20039;-73
2023/07/16 13:20:37;;;;;;;8.68;4.47;;;;;;;;;;5084823;28;20393;-74
2023/07/16 13:23:03;;;;;;;12.82;4.72;;;;;;;;;;5079128;28;20030;-73
2023/07/16 13:25:29;;;;;;;8.80;4.20;;;;;;;;;;5071813;28;20017;-73
2023/07/16 13:27:56;;;;;;;10.38;4.82;;;;;;;;;;5071576;28;20144;-73
2023/07/16 13:30:21;;;;;;;16.50;4.57;;;;;;;;;;5071254;28;20024;-73
2023/07/16 13:32:48;;;;;;;9.70;3.97;;;;;;;;;;5073888;28;20025;-73
2023/07/16 13:35:14;;;;;;;6.95;3.92;;;;;;;;;;5091757;28;20023;-73
2023/07/16 13:37:39;;;;;;;6.90;3.80;;;;;;;;;;5092676;28;20035;-74
2023/07/16 13:40:05;;;;;;;9.43;4.88;;;;;;;;;;5093026;28;20024;-75
2023/07/16 13:42:31;;;;;;;8.43;3.90;;;;;;;;;;5091328;28;20085;-75
2023/07/16 13:44:56;;;;;;;10.88;4.10;;;;;;;;;;5091816;28;20024;-75
2023/07/16 13:47:22;;;;;;;13.10;5.55;;;;;;;;;;5097062;28;20424;-74
2023/07/16 13:49:47;;;;;;;16.25;5.57;;;;;;;;;;5095484;28;20055;-74
2023/07/16 13:52:12;;;;;;;11.30;4.88;;;;;;;;;;5096943;28;20496;-74
2023/07/16 13:54:37;;;;;;;10.73;5.10;;;;;;;;;;5095498;28;20035;-75
2023/07/16 13:57:03;;;;;;;21.08;6.25;;;;;;;;;;5096407;28;20020;-74
2023/07/16 13:59:28;;;;;;;16.20;5.05;;;;;;;;;;5096726;28;20020;-73
2023/07/16 14:02:01;;;;;;;10.88;5.10;;;;;;;;;;5095438;28;20103;-73
2023/07/16 14:04:26;;;;;;;15.57;5.63;;;;;;;;;;5065073;22;20142;-69
2023/07/16 14:06:53;;;;;;;14.15;5.97;;;;;;;;;;5031494;28;20109;-69
2023/07/16 14:09:19;;;;;;;21.15;6.47;;;;;;;;;;5015411;28;20462;-69
2023/07/16 14:11:47;;;;;;;19.70;5.80;;;;;;;;;;5023224;28;20018;-69
2023/07/16 14:14:12;;;;;;;16.52;5.38;;;;;;;;;;5015027;28;20021;-68
2023/07/16 14:16:38;;;;;;;15.25;5.50;;;;;;;;;;5017363;28;20117;-69
2023/07/16 14:19:03;;;;;;;13.20;4.68;;;;;;;;;;5036551;28;20116;-68
2023/07/16 14:21:30;;;;;;;13.10;5.10;;;;;;;;;;5034801;28;20053;-68
2023/07/16 14:23:55;;;;;;;16.80;5.00;;;;;;;;;;5036138;28;20018;-68
2023/07/16 14:26:20;;;;;;;11.45;4.65;;;;;;;;;;5035423;28;20021;-67
2023/07/16 14:28:46;;;;;;;8.95;4.63;;;;;;;;;;5036129;28;20048;-67
2023/07/16 14:31:11;;;;;;;10.32;4.40;;;;;;;;;;5035822;28;20409;-67
2023/07/16 14:33:37;;;;;;;15.25;4.68;;;;;;;;;;5036093;28;20493;-67
2023/07/16 14:36:03;;;;;;;11.10;4.80;;;;;;;;;;5035040;28;20032;-67
2023/07/16 14:38:28;;;;;;;15.63;4.68;;;;;;;;;;5035802;28;20034;-67
2023/07/16 14:40:53;;;;;;;12.52;5.15;;;;;;;;;;5035661;28;20075;-67
2023/07/16 14:43:19;;;;;;;15.98;4.88;;;;;;;;;;5035494;28;20096;-68
2023/07/16 14:45:44;;;;;;;12.70;4.93;;;;;;;;;;5035718;28;20021;-68
2023/07/16 14:48:09;;;;;;;13.73;4.93;;;;;;;;;;5035429;28;20030;-68
2023/07/16 14:50:34;;;;;;;13.93;4.60;;;;;;;;;;5034812;28;20021;-68
2023/07/16 14:53:00;;;;;;;11.45;4.35;;;;;;;;;;5035185;28;20025;-68
2023/07/16 14:55:25;;;;;;;12.48;3.90;;;;;;;;;;5034995;28;20413;-68
2023/07/16 14:57:50;;;;;;;12.48;4.13;;;;;;;;;;5035327;28;20026;-67
2023/07/16 15:00:16;;;;;;;14.90;4.20;;;;;;;;;;5013397;28;20161;-67
2023/07/16 15:02:42;;;;;;;14.05;3.60;;;;;;;;;;4999420;28;20034;-68
2023/07/16 15:05:07;;;;;;;15.45;4.22;;;;;;;;;;4996616;28;20049;-68
2023/07/16 15:07:34;;;;;;;12.85;4.15;;;;;;;;;;4995734;28;20031;-67
2023/07/16 15:10:00;;;;;;;16.73;3.90;;;;;;;;;;5012053;28;20026;-67
2023/07/16 15:12:25;;;;;;;15.85;4.00;;;;;;;;;;5014358;28;20026;-68
2023/07/16 15:14:51;;;;;;;12.38;4.07;;;;;;;;;;5014987;28;20519;-68
2023/07/16 15:17:16;;;;;;;15.88;5.50;;;;;;;;;;5014762;28;20026;-68
2023/07/16 15:19:42;;;;;;;15.50;3.60;;;;;;;;;;5014256;28;20022;-68
2023/07/16 15:22:07;;;;;;;10.70;4.18;;;;;;;;;;5014945;28;20022;-68
2023/07/16 15:24:32;;;;;;;12.32;3.58;;;;;;;;;;5028956;28;20021;-69
2023/07/16 15:26:58;;;;;;;14.80;4.80;;;;;;;;;;5034779;28;20025;-69
2023/07/16 15:29:24;;;;;;;13.85;3.63;;;;;;;;;;5035022;28;20033;-69
2023/07/16 15:31:49;;;;;;;13.43;4.53;;;;;;;;;;5033750;28;20060;-69
2023/07/16 15:34:14;;;;;;;14.98;3.90;;;;;;;;;;5034270;28;20022;-68
2023/07/16 15:36:39;;;;;;;12.32;4.30;;;;;;;;;;5034292;28;20398;-69
2023/07/16 15:39:06;;;;;;;14.73;3.03;;;;;;;;;;5034468;28;20022;-68
2023/07/16 15:41:31;;;;;;;14.77;3.38;;;;;;;;;;5009378;28;20381;-69
2023/07/16 15:43:56;;;;;;;13.50;3.92;;;;;;;;;;4996379;28;20033;-69
2023/07/16 15:46:22;;;;;;;11.95;3.20;;;;;;;;;;5014843;28;20114;-69
2023/07/16 15:48:47;;;;;;;14.20;3.50;;;;;;;;;;5013617;28;20507;-69
2023/07/16 15:51:13;;;;;;;14.60;3.55;;;;;;;;;;5014751;28;20053;-69
2023/07/16 15:53:39;;;;;;;22.63;4.15;;;;;;;;;;5005829;28;20024;-69
2023/07/16 15:56:04;;;;;;;15.18;3.67;;;;;;;;;;4995308;28;20113;-69
2023/07/16 15:58:29;;;;;;;11.15;3.50;;;;;;;;;;4997202;28;20060;-69
2023/07/16 16:00:55;;;;;;;18.83;4.95;;;;;;;;;;5013459;28;20083;-69
2023/07/16 16:03:21;;;;;;;9.35;2.92;;;;;;;;;;5013525;28;20390;-69
2023/07/16 16:05:46;;;;;;;12.10;4.53;;;;;;;;;;4997321;28;20038;-69
2023/07/16 16:08:19;;;;;;;18.20;3.85;;;;;;;;;;4992675;28;20117;-69
2023/07/16 16:10:50;;;;;;;15.93;3.83;;;;;;;;;;5022808;28;20017;-69
2023/07/16 16:13:15;;;;;;;11.80;3.13;;;;;;;;;;5032771;28;20017;-68
2023/07/16 16:15:41;;;;;;;12.95;3.28;;;;;;;;;;5032461;28;20021;-68
2023/07/16 16:18:06;;;;;;;13.77;3.55;;;;;;;;;;5014326;28;20026;-69
2023/07/16 16:20:32;;;;;;;11.55;3.20;;;;;;;;;;5012895;28;20022;-68
2023/07/16 16:22:58;;;;;;;13.93;4.10;;;;;;;;;;5014091;28;20518;-69
2023/07/16 16:25:24;;;;;;;13.32;4.05;;;;;;;;;;5014072;28;20479;-69
2023/07/16 16:27:49;;;;;;;18.42;3.30;;;;;;;;;;5013279;28;20036;-68
2023/07/16 16:30:14;;;;;;;8.82;3.20;;;;;;;;;;5014106;28;20060;-69
2023/07/16 16:32:40;;;;;;;17.13;3.70;;;;;;;;;;5015142;28;20402;-69
2023/07/16 16:35:06;;;;;;;11.10;2.88;;;;;;;;;;5019926;28;20022;-69
2023/07/16 16:37:31;;;;;;;15.20;3.53;;;;;;;;;;5002480;28;20046;-68
2023/07/16 16:39:58;;;;;;;15.10;3.70;;;;;;;;;;4996318;28;20034;-69
2023/07/16 16:42:24;;;;;;;13.18;4.32;;;;;;;;;;4994138;28;20030;-69
2023/07/16 16:44:49;;;;;;;14.10;3.25;;;;;;;;;;4998964;28;20490;-69
2023/07/16 16:47:14;;;;;;;14.63;4.00;;;;;;;;;;5033783;28;20475;-70
2023/07/16 16:49:42;;;;;;;14.55;3.50;;;;;;;;;;5032301;28;20025;-69
2023/07/16 16:52:07;;;;;;;11.18;4.03;;;;;;;;;;4996793;28;20026;-70
2023/07/16 16:54:33;;;;;;;11.35;3.42;;;;;;;;;;4993833;28;20076;-70
2023/07/16 16:56:58;;;;;;;13.27;3.08;;;;;;;;;;5016320;28;20082;-70
2023/07/16 16:59:23;;;;;;;13.07;3.10;;;;;;;;;;5033233;28;20021;-71
2023/07/16 17:01:48;;;;;;;13.13;3.50;;;;;;;;;;5025917;28;20030;-70
2023/07/16 17:04:14;;;;;;;13.93;3.67;;;;;;;;;;5000117;28;20476;-70
2023/07/16 17:06:41;;;;;;;12.25;3.30;;;;;;;;;;4993858;28;20037;-70
2023/07/16 17:09:06;;;;;;;12.40;3.40;;;;;;;;;;5028811;28;20075;-69
2023/07/16 17:11:32;;;;;;;9.70;3.17;;;;;;;;;;5029191;28;20026;-70
2023/07/16 17:13:57;;;;;;;13.68;3.85;;;;;;;;;;5012815;28;20252;-70
2023/07/16 17:16:22;;;;;;;16.73;3.58;;;;;;;;;;5015390;28;20479;-70
2023/07/16 17:18:48;;;;;;;11.95;2.72;;;;;;;;;;5032932;28;20467;-71
2023/07/16 17:21:13;;;;;;;15.02;3.13;;;;;;;;;;5032748;28;20029;-70
2023/07/16 17:23:38;;;;;;;15.73;4.15;;;;;;;;;;5032958;28;20018;-69
2023/07/16 17:26:03;;;;;;;17.35;4.93;;;;;;;;;;5032732;28;20506;-70
2023/07/16 17:28:29;;;;;;;10.63;3.63;;;;;;;;;;5032422;28;20026;-70
2023/07/16 17:30:59;;;;;;;8.38;3.50;;;;;;;;;;5031316;28;20021;-71
2023/07/16 17:33:25;;;;;;;13.40;2.95;;;;;;;;;;5031370;28;20013;-70
2023/07/16 17:35:50;;;;;;;12.48;2.83;;;;;;;;;;5031891;28;20029;-69
2023/07/16 17:38:15;;;;;;;14.93;3.42;;;;;;;;;;5032760;28;20860;-71
2023/07/16 17:40:43;;;;;;;12.63;3.10;;;;;;;;;;5032555;28;20025;-71
2023/07/16 17:43:08;;;;;;;11.73;2.80;;;;;;;;;;5032552;28;20040;-71
2023/07/16 17:45:33;;;;;;;9.75;3.72;;;;;;;;;;5032704;28;20025;-71
2023/07/16 17:47:59;;;;;;;15.00;3.58;;;;;;;;;;5032457;28;20033;-70
2023/07/16 17:50:24;;;;;;;10.77;2.97;;;;;;;;;;5032635;28;20071;-71
2023/07/16 17:52:49;;;;;;;12.50;3.63;;;;;;;;;;5032859;28;20033;-70
2023/07/16 17:55:14;;;;;;;10.43;3.65;;;;;;;;;;5032373;28;20490;-71
2023/07/16 17:57:41;;;;;;;9.30;2.90;;;;;;;;;;5032546;28;20041;-69
2023/07/16 18:00:07;;;;;;;10.55;3.72;;;;;;;;;;5031831;28;20028;-71
2023/07/16 18:02:32;;;;;;;7.90;2.80;;;;;;;;;;5031567;28;20029;-70
2023/07/16 18:04:58;;;;;;;20.45;3.72;;;;;;;;;;5032219;28;20402;-70
2023/07/16 18:07:23;;;;;;;8.52;2.65;;;;;;;;;;5032613;28;20128;-71
2023/07/16 18:09:53;;;;;;;12.68;3.08;;;;;;;;;;5031019;28;20025;-71
2023/07/16 18:12:20;;;;;;;13.18;3.60;;;;;;;;;;5032168;28;20031;-69
2023/07/16 18:14:46;;;;;;;10.93;3.53;;;;;;;;;;5032692;28;20022;-67
2023/07/16 18:17:11;;;;;;;17.02;3.63;;;;;;;;;;5032541;28;20482;-68
2023/07/16 18:19:36;;;;;;;14.77;3.40;;;;;;;;;;5030107;28;20421;-67
2023/07/16 18:22:02;;;;;;;14.13;3.25;;;;;;;;;;5001735;28;20030;-67
2023/07/16 18:24:27;;;;;;;15.10;3.15;;;;;;;;;;4999217;28;20026;-67
2023/07/16 18:26:55;;;;;;;12.30;3.67;;;;;;;;;;5001621;28;20034;-67
2023/07/16 18:29:20;;;;;;;14.75;3.45;;;;;;;;;;5000026;28;20100;-67
2023/07/16 18:31:45;;;;;;;17.30;4.03;;;;;;;;;;5006354;28;20487;-68
2023/07/16 18:34:11;;;;;;;19.05;4.05;;;;;;;;;;5003887;28;20026;-68
2023/07/16 18:36:36;;;;;;;16.25;4.63;;;;;;;;;;5004078;28;20022;-68
2023/07/16 18:39:05;;;;;;;11.00;3.20;;;;;;;;;;5001818;28;20130;-68
2023/07/16 18:41:30;;;;;;;10.40;3.40;;;;;;;;;;4999564;28;20038;-68
2023/07/16 18:43:55;;;;;;;17.45;4.07;;;;;;;;;;4999090;28;20026;-68
2023/07/16 18:46:21;;;;;;;16.08;3.67;;;;;;;;;;5007465;28;20033;-68
2023/07/16 18:48:46;;;;;;;18.95;3.22;;;;;;;;;;4998429;28;20027;-68
2023/07/16 18:51:11;;;;;;;11.82;3.10;;;;;;;;;;5004657;28;20112;-68
2023/07/16 18:53:37;;;;;;;14.88;3.20;;;;;;;;;;5005081;28;20110;-69
2023/07/16 18:56:03;;;;;;;13.32;3.03;;;;;;;;;;5007984;28;20057;-68
2023/07/16 18:58:29;;;;;;;15.85;3.58;;;;;;;;;;5000604;28;20029;-68
2023/07/16 19:00:54;;;;;;;11.95;4.00;;;;;;;;;;4998194;28;20033;-69
2023/07/16 19:03:20;;;;;;;11.57;3.35;;;;;;;;;;4999219;28;20030;-68
2023/07/16 19:05:45;;;;;;;11.77;3.25;;;;;;;;;;5001400;28;20056;-68
2023/07/16 19:08:11;;;;;;;11.23;3.40;;;;;;;;;;5006282;28;20113;-68
2023/07/16 19:10:39;;;;;;;11.02;3.63;;;;;;;;;;5001442;28;20088;-68
2023/07/16 19:13:07;;;;;;;17.13;3.85;;;;;;;;;;5003110;28;20026;-68
2023/07/16 19:15:33;;;;;;;10.00;3.25;;;;;;;;;;5006756;28;20030;-68
2023/07/16 19:17:59;;;;;;;12.52;3.90;;;;;;;;;;5003284;28;22384;-68
2023/07/16 19:20:24;;;;;;;19.55;5.05;;;;;;;;;;5002950;28;20056;-68
2023/07/16 19:22:49;;;;;;;14.43;3.90;;;;;;;;;;5007648;28;20037;-67
2023/07/16 19:25:15;;;;;;;9.00;3.45;;;;;;;;;;5000838;28;20080;-68
2023/07/16 19:27:40;;;;;;;12.95;3.33;;;;;;;;;;5000090;28;20034;-68
2023/07/16 19:30:06;;;;;;;11.07;3.67;;;;;;;;;;5002546;28;20518;-67
2023/07/16 19:32:31;;;;;;;16.17;3.85;;;;;;;;;;5000957;28;20030;-67
2023/07/16 19:34:57;;;;;;;18.73;3.15;;;;;;;;;;5005003;28;20558;-67
2023/07/16 19:37:22;;;;;;;9.85;3.17;;;;;;;;;;5006257;28;20030;-67
2023/07/16 19:39:48;;;;;;;11.57;2.75;;;;;;;;;;5000728;28;20057;-67
2023/07/16 19:42:14;;;;;;;15.32;3.60;;;;;;;;;;4999524;28;20026;-67
2023/07/16 19:44:39;;;;;;;13.73;3.28;;;;;;;;;;5000435;28;20022;-68
2023/07/16 19:47:05;;;;;;;12.02;2.83;;;;;;;;;;5001990;28;20411;-68
2023/07/16 19:49:30;;;;;;;12.63;3.58;;;;;;;;;;5003078;28;20029;-68
2023/07/16 19:51:56;;;;;;;12.63;3.35;;;;;;;;;;5005075;28;20099;-68